createdAt,value
2023-04-07T00:00:27.116Z,6.20
2023-04-07T00:05:32.088Z,6.50
2023-04-07T00:10:35.604Z,6.83
2023-04-07T00:15:39.531Z,6.37
2023-04-07T00:20:45.344Z,6.40
2023-04-07T00:25:50.504Z,6.60
2023-04-07T00:30:53.948Z,5.70
2023-04-07T00:35:59.049Z,6.73
2023-04-07T00:41:02.542Z,5.80
2023-04-07T00:46:06.141Z,6.10
2023-04-07T00:51:11.058Z,6.43
2023-04-07T00:56:14.616Z,6.70
2023-04-07T01:01:24.209Z,6.90
2023-04-07T01:06:34.521Z,6.27
2023-04-07T01:11:44.702Z,7.17
2023-04-07T01:16:53.079Z,6.67
2023-04-07T01:22:00.476Z,6.23
2023-04-07T01:27:20.585Z,6.33
2023-04-07T01:32:29.558Z,6.13
2023-04-07T01:37:33.770Z,6.57
2023-04-07T01:42:38.938Z,6.67
2023-04-07T01:47:44.803Z,6.73
2023-04-07T01:52:49.932Z,6.57
2023-04-07T01:57:55.594Z,6.63
2023-04-07T02:03:05.525Z,7.00
2023-04-07T02:08:12.202Z,7.10
2023-04-07T02:13:19.877Z,7.03
2023-04-07T02:18:26.463Z,7.17
2023-04-07T02:23:30.045Z,6.73
2023-04-07T02:28:33.333Z,6.73
2023-04-07T02:33:37.910Z,6.70
2023-04-07T02:38:41.079Z,6.30
2023-04-07T02:43:44.551Z,5.67
2023-04-07T02:48:49.244Z,5.97
2023-04-07T02:53:52.779Z,6.27
2023-04-07T02:58:56.174Z,5.97
2023-04-07T03:04:01.013Z,6.00
2023-04-07T03:09:04.502Z,6.27
2023-04-07T03:14:07.830Z,6.60
2023-04-07T03:19:12.873Z,6.37
2023-04-07T03:24:16.492Z,5.87
2023-04-07T03:29:20.957Z,5.90
2023-04-07T03:34:25.539Z,5.80
2023-04-07T03:39:28.835Z,5.40
2023-04-07T03:44:35.367Z,5.90
2023-04-07T03:49:40.021Z,5.90
2023-04-07T03:54:43.449Z,5.67
2023-04-07T03:59:48.074Z,5.40
2023-04-07T04:04:53.067Z,5.80
2023-04-07T04:09:57.043Z,6.00
2023-04-07T04:15:00.467Z,5.17
2023-04-07T04:20:05.542Z,5.43
2023-04-07T04:25:09.763Z,5.53
2023-04-07T04:30:13.380Z,5.70
2023-04-07T04:35:18.247Z,6.00
2023-04-07T04:40:21.871Z,6.83
2023-04-07T04:45:25.375Z,6.03
2023-04-07T04:50:30.744Z,6.03
2023-04-07T04:55:34.019Z,5.70
2023-04-07T05:00:37.378Z,5.97
2023-04-07T05:05:42.019Z,6.10
2023-04-07T05:10:46.648Z,5.17
2023-04-07T05:15:50.080Z,5.23
2023-04-07T05:20:54.895Z,5.53
2023-04-07T05:25:58.245Z,5.70
2023-04-07T05:31:01.694Z,5.33
2023-04-07T05:36:06.884Z,5.80
2023-04-07T05:41:10.049Z,6.13
2023-04-07T05:46:13.413Z,6.50
2023-04-07T05:51:18.477Z,6.40
2023-04-07T05:56:21.961Z,6.00
2023-04-07T06:01:27.028Z,5.90
2023-04-07T06:06:32.576Z,5.57
2023-04-07T06:11:36.265Z,6.40
2023-04-07T06:16:40.098Z,5.90
2023-04-07T06:21:45.950Z,6.43
2023-04-07T06:26:49.440Z,5.70
2023-04-07T06:31:52.824Z,5.73
2023-04-07T06:36:58.268Z,5.60
2023-04-07T06:42:02.968Z,6.10
2023-04-07T06:47:14.481Z,6.17
2023-04-07T06:52:19.252Z,5.83
2023-04-07T06:57:25.768Z,6.07
2023-04-07T07:02:29.166Z,5.83
2023-04-07T07:07:35.623Z,6.50
2023-04-07T07:12:38.889Z,5.38
2023-04-07T07:17:42.888Z,6.50
2023-04-07T07:22:47.869Z,5.75
2023-04-07T07:27:53.496Z,6.05
2023-04-07T07:33:01.045Z,5.97
2023-04-07T07:38:05.732Z,6.20
2023-04-07T07:43:11.705Z,5.78
2023-04-07T07:48:15.025Z,5.82
2023-04-07T07:53:22.589Z,5.57
2023-04-07T07:58:28.305Z,5.07
2023-04-07T08:03:35.036Z,5.13
2023-04-07T08:08:39.846Z,5.00
2023-04-07T08:13:54.792Z,5.10
2023-04-07T08:18:58.182Z,5.78
2023-04-07T08:24:02.914Z,5.35
2023-04-07T08:29:08.154Z,5.47
2023-04-07T08:34:11.493Z,5.47
2023-04-07T08:39:18.862Z,5.85
2023-04-07T08:44:23.682Z,5.75
2023-04-07T08:49:34.376Z,6.00
2023-04-07T08:54:39.978Z,5.90
2023-04-07T08:59:49.114Z,5.80
2023-04-07T09:04:52.278Z,6.13
2023-04-07T09:10:01.516Z,5.57
2023-04-07T09:15:05.449Z,7.03
2023-04-07T09:20:12.441Z,6.50
2023-04-07T09:25:18.972Z,5.53
2023-04-07T09:30:25.626Z,5.10
2023-04-07T09:35:30.352Z,4.38
2023-04-07T09:40:38.639Z,4.90
2023-04-07T09:45:42.602Z,4.95
2023-04-07T09:50:49.780Z,5.10
2023-04-07T09:55:56.150Z,5.57
2023-04-07T10:01:00.068Z,6.03
2023-04-07T10:06:06.490Z,5.63
2023-04-07T10:11:11.836Z,5.65
2023-04-07T10:16:18.631Z,6.20
2023-04-07T10:21:28.109Z,5.95
2023-04-07T10:26:37.136Z,5.93
2023-04-07T10:31:41.055Z,5.97
2023-04-07T10:37:13.676Z,5.78
2023-04-07T10:42:47.026Z,5.82
2023-04-07T10:48:14.128Z,6.90
2023-04-07T10:53:22.733Z,5.07
2023-04-07T10:58:27.062Z,5.38
2023-04-07T11:03:34.226Z,5.13
2023-04-07T11:08:38.875Z,5.30
2023-04-07T11:13:47.625Z,5.82
2023-04-07T11:18:58.986Z,6.00
2023-04-07T11:24:05.346Z,5.40
2023-04-07T11:29:09.552Z,5.80
2023-04-07T11:34:21.813Z,5.78
2023-04-07T11:39:28.275Z,5.97
2023-04-07T11:44:32.401Z,5.55
2023-04-07T11:49:50.050Z,4.93
2023-04-07T11:54:53.318Z,4.95
2023-04-07T12:00:07.394Z,5.30
2023-04-07T12:05:16.274Z,4.80
2023-04-07T12:10:21.042Z,4.53
2023-04-07T12:15:28.019Z,4.90
2023-04-07T12:20:38.584Z,5.50
2023-04-07T12:25:43.964Z,4.65
2023-04-07T12:30:47.563Z,4.85
2023-04-07T12:35:54.195Z,4.90
2023-04-07T12:41:03.504Z,7.20
2023-04-07T12:46:07.824Z,5.55
2023-04-07T12:51:12.906Z,5.20
2023-04-07T12:56:16.198Z,4.50
2023-04-07T13:01:19.777Z,4.80
2023-04-07T13:06:27.774Z,4.85
2023-04-07T13:11:31.385Z,4.55
2023-04-07T13:16:35.529Z,5.38
2023-04-07T13:21:46.669Z,5.20
2023-04-07T13:26:54.737Z,4.80
2023-04-07T13:32:08.329Z,5.00
2023-04-07T13:37:12.914Z,4.85
2023-04-07T13:42:22.588Z,5.00
2023-04-07T13:47:26.795Z,4.63
2023-04-07T13:52:36.091Z,4.65
2023-04-07T13:57:39.417Z,4.43
2023-04-07T14:02:46.007Z,4.65
2023-04-07T14:07:51.145Z,4.53
2023-04-07T14:12:56.423Z,4.35
2023-04-07T14:18:02.730Z,4.43
2023-04-07T14:23:07.374Z,4.10
2023-04-07T14:28:13.535Z,4.03
2023-04-07T14:33:17.392Z,4.30
2023-04-07T14:38:28.901Z,4.45
2023-04-07T14:43:35.716Z,4.55
2023-04-07T14:48:39.375Z,4.40
2023-04-07T14:53:47.139Z,4.15
2023-04-07T14:58:52.543Z,4.57
2023-04-07T15:03:55.748Z,4.20
2023-04-07T15:09:09.992Z,4.28
2023-04-07T15:14:14.084Z,4.45
2023-04-07T15:19:20.349Z,4.10
2023-04-07T15:24:25.394Z,3.87
2023-04-07T15:29:30.579Z,3.43
2023-04-07T15:34:33.847Z,3.20
2023-04-07T15:39:49.419Z,2.77
2023-04-07T15:44:52.676Z,3.00
2023-04-07T15:49:57.196Z,2.83
2023-04-07T15:55:02.054Z,3.20
2023-04-07T16:00:06.156Z,4.40
2023-04-07T16:05:12.254Z,3.90
2023-04-07T16:10:19.901Z,3.60
2023-04-07T16:15:36.721Z,3.50
2023-04-07T16:20:45.878Z,3.72
2023-04-07T16:25:50.808Z,3.78
2023-04-07T16:30:56.729Z,4.33
2023-04-07T16:36:00.024Z,3.30
2023-04-07T16:41:08.453Z,5.22
2023-04-07T16:46:12.714Z,4.57
2023-04-07T16:51:27.297Z,4.27
2023-04-07T16:56:34.530Z,3.67
2023-04-07T17:01:42.172Z,3.20
2023-04-07T17:06:47.553Z,6.97
2023-04-07T17:11:52.514Z,3.40
2023-04-07T17:16:56.282Z,3.77
2023-04-07T17:21:59.978Z,3.80
2023-04-07T17:27:05.753Z,4.70
2023-04-07T17:32:09.192Z,3.83
2023-04-07T17:37:14.413Z,3.90
2023-04-07T17:42:19.235Z,3.43
2023-04-07T17:47:22.861Z,3.27
2023-04-07T17:52:29.677Z,3.30
2023-04-07T17:57:36.017Z,3.40
2023-04-07T18:02:40.779Z,2.80
2023-04-07T18:07:45.257Z,14.80
2023-04-07T18:12:49.995Z,5.90
2023-04-07T18:17:55.123Z,3.80
2023-04-07T18:22:59.016Z,3.40
2023-04-07T18:28:04.272Z,3.40
2023-04-07T18:33:16.655Z,2.83
2023-04-07T18:38:19.907Z,3.30
2023-04-07T18:43:24.563Z,3.97
2023-04-07T18:48:35.866Z,3.20
2023-04-07T18:53:39.975Z,3.37
2023-04-07T18:58:45.948Z,3.30
2023-04-07T19:03:49.559Z,2.80
2023-04-07T19:08:55.443Z,3.20
2023-04-07T19:14:00.146Z,3.80
2023-04-07T19:19:07.832Z,3.90
2023-04-07T19:24:11.484Z,4.33
2023-04-07T19:29:16.542Z,4.60
2023-04-07T19:34:20.904Z,5.03
2023-04-07T19:39:25.482Z,5.50
2023-04-07T19:44:30.302Z,6.70
2023-04-07T19:49:34.306Z,6.27
2023-04-07T19:54:37.704Z,6.77
2023-04-07T19:59:42.401Z,5.43
2023-04-07T20:04:46.024Z,5.00
2023-04-07T20:09:50.776Z,5.03
2023-04-07T20:14:55.458Z,6.40
2023-04-07T20:19:58.971Z,4.70
2023-04-07T20:25:04.894Z,3.77
2023-04-07T20:30:10.667Z,4.40
2023-04-07T20:35:14.181Z,4.67
2023-04-07T20:40:17.557Z,4.47
2023-04-07T20:45:23.120Z,4.40
2023-04-07T20:50:26.224Z,4.73
2023-04-07T20:55:30.271Z,4.00
2023-04-07T21:00:35.825Z,5.13
2023-04-07T21:05:40.588Z,4.60
2023-04-07T21:10:43.724Z,5.27
2023-04-07T21:15:48.367Z,5.03
2023-04-07T21:20:51.723Z,5.17
2023-04-07T21:25:54.863Z,5.00
2023-04-07T21:30:59.700Z,4.43
2023-04-07T21:36:03.874Z,4.80
2023-04-07T21:41:07.222Z,5.47
2023-04-07T21:46:14.247Z,5.63
2023-04-07T21:51:17.547Z,5.23
2023-04-07T21:56:21.991Z,4.20
2023-04-07T22:01:27.253Z,3.37
2023-04-07T22:06:31.409Z,3.37
2023-04-07T22:11:34.669Z,3.40
2023-04-07T22:16:48.009Z,3.83
2023-04-07T22:21:52.676Z,3.10
2023-04-07T22:26:57.462Z,3.07
2023-04-07T22:32:02.066Z,3.30
2023-04-07T22:37:05.811Z,3.80
2023-04-07T22:42:08.996Z,3.97
2023-04-07T22:47:13.701Z,3.50
2023-04-07T22:52:17.036Z,3.60
2023-04-07T22:57:20.553Z,3.67
2023-04-07T23:02:25.658Z,4.10
2023-04-07T23:07:29.131Z,4.40
2023-04-07T23:12:32.448Z,4.80
2023-04-07T23:17:37.242Z,4.77
2023-04-07T23:22:40.449Z,4.40
2023-04-07T23:27:44.117Z,3.83
2023-04-07T23:32:48.791Z,4.60
2023-04-07T23:37:53.244Z,4.17
2023-04-07T23:42:56.625Z,4.70
2023-04-07T23:48:01.931Z,4.00
2023-04-07T23:53:05.739Z,3.80
2023-04-07T23:58:09.008Z,3.33
